sensor_id;sensor_type;location;lat;lon;timestamp;P1;durP1;ratioP1;P2;durP2;ratioP2
46755;SDS011;32506;52.826;-1.192;2023-04-03T00:01:23;2.95;;;1.20;;
46755;SDS011;32506;52.826;-1.192;2023-04-03T00:03:49;3.67;;;1.42;;
46755;SDS011;32506;52.826;-1.192;2023-04-03T00:06:15;3.38;;;1.73;;
46755;SDS011;32506;52.826;-1.192;2023-04-03T00:08:40;5.72;;;1.77;;
46755;SDS011;32506;52.826;-1.192;2023-04-03T00:11:06;3.47;;;1.60;;
46755;SDS011;32506;52.826;-1.192;2023-04-03T00:13:33;3.13;;;1.65;;
46755;SDS011;32506;52.826;-1.192;2023-04-03T00:15:58;4.47;;;1.30;;
46755;SDS011;32506;52.826;-1.192;2023-04-03T00:18:24;2.95;;;1.63;;
46755;SDS011;32506;52.826;-1.192;2023-04-03T00:20:50;4.70;;;1.73;;
46755;SDS011;32506;52.826;-1.192;2023-04-03T00:23:16;3.50;;;2.25;;
46755;SDS011;32506;52.826;-1.192;2023-04-03T00:25:42;2.60;;;1.40;;
46755;SDS011;32506;52.826;-1.192;2023-04-03T00:28:08;4.00;;;1.50;;
46755;SDS011;32506;52.826;-1.192;2023-04-03T00:30:33;4.28;;;1.63;;
46755;SDS011;32506;52.826;-1.192;2023-04-03T00:32:59;3.50;;;1.55;;
46755;SDS011;32506;52.826;-1.192;2023-04-03T00:35:26;3.60;;;1.20;;
46755;SDS011;32506;52.826;-1.192;2023-04-03T00:37:52;2.65;;;1.33;;
46755;SDS011;32506;52.826;-1.192;2023-04-03T00:40:19;3.75;;;1.58;;
46755;SDS011;32506;52.826;-1.192;2023-04-03T00:42:45;2.05;;;1.08;;
46755;SDS011;32506;52.826;-1.192;2023-04-03T00:47:44;3.07;;;1.20;;
46755;SDS011;32506;52.826;-1.192;2023-04-03T00:50:10;2.85;;;1.35;;
46755;SDS011;32506;52.826;-1.192;2023-04-03T00:52:36;3.75;;;1.52;;
46755;SDS011;32506;52.826;-1.192;2023-04-03T00:55:04;2.72;;;1.30;;
46755;SDS011;32506;52.826;-1.192;2023-04-03T00:57:32;3.97;;;1.20;;
46755;SDS011;32506;52.826;-1.192;2023-04-03T00:59:59;3.47;;;1.30;;
46755;SDS011;32506;52.826;-1.192;2023-04-03T01:02:28;3.17;;;1.70;;
46755;SDS011;32506;52.826;-1.192;2023-04-03T01:04:53;2.92;;;1.40;;
46755;SDS011;32506;52.826;-1.192;2023-04-03T01:07:20;2.40;;;1.30;;
46755;SDS011;32506;52.826;-1.192;2023-04-03T01:09:49;2.70;;;1.33;;
46755;SDS011;32506;52.826;-1.192;2023-04-03T01:12:19;2.85;;;1.13;;
46755;SDS011;32506;52.826;-1.192;2023-04-03T01:14:48;2.20;;;1.20;;
46755;SDS011;32506;52.826;-1.192;2023-04-03T01:17:28;4.15;;;1.40;;
46755;SDS011;32506;52.826;-1.192;2023-04-03T01:20:02;2.50;;;1.33;;
46755;SDS011;32506;52.826;-1.192;2023-04-03T01:25:31;3.40;;;1.42;;
46755;SDS011;32506;52.826;-1.192;2023-04-03T01:27:58;2.55;;;1.35;;
46755;SDS011;32506;52.826;-1.192;2023-04-03T01:30:26;3.35;;;2.13;;
46755;SDS011;32506;52.826;-1.192;2023-04-03T01:35:22;2.10;;;1.20;;
46755;SDS011;32506;52.826;-1.192;2023-04-03T01:37:47;3.05;;;1.25;;
46755;SDS011;32506;52.826;-1.192;2023-04-03T01:40:13;3.40;;;1.55;;
46755;SDS011;32506;52.826;-1.192;2023-04-03T01:42:38;2.80;;;1.20;;
46755;SDS011;32506;52.826;-1.192;2023-04-03T01:45:04;4.25;;;1.35;;
46755;SDS011;32506;52.826;-1.192;2023-04-03T01:47:29;2.65;;;1.30;;
46755;SDS011;32506;52.826;-1.192;2023-04-03T01:49:55;1.95;;;0.90;;
46755;SDS011;32506;52.826;-1.192;2023-04-03T01:52:20;2.13;;;1.17;;
46755;SDS011;32506;52.826;-1.192;2023-04-03T01:54:46;2.22;;;1.10;;
46755;SDS011;32506;52.826;-1.192;2023-04-03T01:57:11;2.47;;;1.23;;
46755;SDS011;32506;52.826;-1.192;2023-04-03T01:59:38;2.58;;;1.27;;
46755;SDS011;32506;52.826;-1.192;2023-04-03T02:02:03;3.65;;;1.40;;
46755;SDS011;32506;52.826;-1.192;2023-04-03T02:04:29;2.70;;;1.40;;
46755;SDS011;32506;52.826;-1.192;2023-04-03T02:06:55;4.72;;;1.52;;
46755;SDS011;32506;52.826;-1.192;2023-04-03T02:09:20;2.08;;;1.02;;
46755;SDS011;32506;52.826;-1.192;2023-04-03T02:11:45;3.88;;;1.45;;
46755;SDS011;32506;52.826;-1.192;2023-04-03T02:14:11;3.97;;;1.48;;
46755;SDS011;32506;52.826;-1.192;2023-04-03T02:16:36;2.75;;;1.23;;
46755;SDS011;32506;52.826;-1.192;2023-04-03T02:19:02;2.05;;;1.20;;
46755;SDS011;32506;52.826;-1.192;2023-04-03T02:21:27;3.33;;;1.65;;
46755;SDS011;32506;52.826;-1.192;2023-04-03T02:23:53;3.28;;;1.60;;
46755;SDS011;32506;52.826;-1.192;2023-04-03T02:26:18;2.63;;;1.15;;
46755;SDS011;32506;52.826;-1.192;2023-04-03T02:28:44;2.95;;;1.50;;
46755;SDS011;32506;52.826;-1.192;2023-04-03T02:31:10;2.38;;;1.10;;
46755;SDS011;32506;52.826;-1.192;2023-04-03T02:33:35;2.65;;;1.42;;
46755;SDS011;32506;52.826;-1.192;2023-04-03T02:36:02;1.77;;;1.00;;
46755;SDS011;32506;52.826;-1.192;2023-04-03T02:38:31;1.70;;;0.90;;
46755;SDS011;32506;52.826;-1.192;2023-04-03T02:41:05;3.25;;;1.20;;
46755;SDS011;32506;52.826;-1.192;2023-04-03T02:43:32;2.58;;;1.15;;
46755;SDS011;32506;52.826;-1.192;2023-04-03T02:45:57;1.95;;;1.15;;
46755;SDS011;32506;52.826;-1.192;2023-04-03T02:48:23;2.00;;;1.20;;
46755;SDS011;32506;52.826;-1.192;2023-04-03T02:50:49;2.95;;;1.65;;
46755;SDS011;32506;52.826;-1.192;2023-04-03T02:53:14;2.55;;;1.27;;
46755;SDS011;32506;52.826;-1.192;2023-04-03T02:55:40;2.17;;;1.10;;
46755;SDS011;32506;52.826;-1.192;2023-04-03T02:58:06;2.22;;;1.38;;
46755;SDS011;32506;52.826;-1.192;2023-04-03T03:00:31;1.90;;;1.00;;
46755;SDS011;32506;52.826;-1.192;2023-04-03T03:02:57;2.83;;;1.52;;
46755;SDS011;32506;52.826;-1.192;2023-04-03T03:05:22;3.42;;;1.27;;
46755;SDS011;32506;52.826;-1.192;2023-04-03T03:07:48;2.53;;;1.30;;
46755;SDS011;32506;52.826;-1.192;2023-04-03T03:10:13;2.33;;;1.15;;
46755;SDS011;32506;52.826;-1.192;2023-04-03T03:12:39;2.22;;;1.15;;
46755;SDS011;32506;52.826;-1.192;2023-04-03T03:15:05;2.38;;;1.20;;
46755;SDS011;32506;52.826;-1.192;2023-04-03T03:17:32;2.28;;;1.02;;
46755;SDS011;32506;52.826;-1.192;2023-04-03T03:19:57;2.70;;;1.60;;
46755;SDS011;32506;52.826;-1.192;2023-04-03T03:22:23;1.80;;;0.98;;
46755;SDS011;32506;52.826;-1.192;2023-04-03T03:24:48;3.13;;;1.20;;
46755;SDS011;32506;52.826;-1.192;2023-04-03T03:27:13;2.08;;;1.08;;
46755;SDS011;32506;52.826;-1.192;2023-04-03T03:29:41;2.55;;;1.30;;
46755;SDS011;32506;52.826;-1.192;2023-04-03T03:32:07;2.63;;;1.20;;
46755;SDS011;32506;52.826;-1.192;2023-04-03T03:34:32;1.73;;;0.90;;
46755;SDS011;32506;52.826;-1.192;2023-04-03T03:36:57;2.25;;;1.00;;
46755;SDS011;32506;52.826;-1.192;2023-04-03T03:39:23;2.50;;;1.30;;
46755;SDS011;32506;52.826;-1.192;2023-04-03T03:41:48;1.50;;;1.10;;
46755;SDS011;32506;52.826;-1.192;2023-04-03T03:44:14;1.55;;;1.05;;
46755;SDS011;32506;52.826;-1.192;2023-04-03T03:46:40;4.13;;;1.63;;
46755;SDS011;32506;52.826;-1.192;2023-04-03T03:49:05;2.15;;;1.15;;
46755;SDS011;32506;52.826;-1.192;2023-04-03T03:51:31;4.72;;;1.23;;
46755;SDS011;32506;52.826;-1.192;2023-04-03T03:53:56;2.28;;;1.10;;
46755;SDS011;32506;52.826;-1.192;2023-04-03T03:56:22;2.33;;;1.30;;
46755;SDS011;32506;52.826;-1.192;2023-04-03T03:58:47;1.65;;;0.90;;
46755;SDS011;32506;52.826;-1.192;2023-04-03T04:01:14;1.42;;;0.90;;
46755;SDS011;32506;52.826;-1.192;2023-04-03T04:03:40;1.83;;;0.88;;
46755;SDS011;32506;52.826;-1.192;2023-04-03T04:06:06;2.90;;;1.13;;
46755;SDS011;32506;52.826;-1.192;2023-04-03T04:08:31;2.22;;;1.20;;
46755;SDS011;32506;52.826;-1.192;2023-04-03T04:10:57;1.67;;;0.90;;
46755;SDS011;32506;52.826;-1.192;2023-04-03T04:13:23;1.98;;;1.02;;
46755;SDS011;32506;52.826;-1.192;2023-04-03T04:15:49;2.67;;;1.48;;
46755;SDS011;32506;52.826;-1.192;2023-04-03T04:18:14;2.00;;;1.17;;
46755;SDS011;32506;52.826;-1.192;2023-04-03T04:20:40;2.45;;;1.15;;
46755;SDS011;32506;52.826;-1.192;2023-04-03T04:23:05;1.67;;;1.02;;
46755;SDS011;32506;52.826;-1.192;2023-04-03T04:25:31;3.08;;;1.55;;
46755;SDS011;32506;52.826;-1.192;2023-04-03T04:27:57;3.22;;;1.25;;
46755;SDS011;32506;52.826;-1.192;2023-04-03T04:30:23;1.92;;;1.20;;
46755;SDS011;32506;52.826;-1.192;2023-04-03T04:32:48;2.75;;;1.05;;
46755;SDS011;32506;52.826;-1.192;2023-04-03T04:35:14;3.40;;;1.30;;
46755;SDS011;32506;52.826;-1.192;2023-04-03T04:37:39;2.15;;;1.00;;
46755;SDS011;32506;52.826;-1.192;2023-04-03T04:40:05;2.88;;;1.30;;
46755;SDS011;32506;52.826;-1.192;2023-04-03T04:42:31;2.17;;;0.98;;
46755;SDS011;32506;52.826;-1.192;2023-04-03T04:44:56;2.15;;;1.23;;
46755;SDS011;32506;52.826;-1.192;2023-04-03T04:47:22;1.25;;;0.77;;
46755;SDS011;32506;52.826;-1.192;2023-04-03T04:49:47;2.28;;;0.90;;
46755;SDS011;32506;52.826;-1.192;2023-04-03T04:52:13;2.55;;;1.20;;
46755;SDS011;32506;52.826;-1.192;2023-04-03T04:54:39;1.95;;;1.20;;
46755;SDS011;32506;52.826;-1.192;2023-04-03T04:57:04;2.05;;;1.23;;
46755;SDS011;32506;52.826;-1.192;2023-04-03T04:59:30;2.35;;;0.98;;
46755;SDS011;32506;52.826;-1.192;2023-04-03T05:01:55;1.85;;;1.10;;
46755;SDS011;32506;52.826;-1.192;2023-04-03T05:04:21;3.00;;;1.35;;
46755;SDS011;32506;52.826;-1.192;2023-04-03T05:06:46;1.73;;;1.10;;
46755;SDS011;32506;52.826;-1.192;2023-04-03T05:09:12;2.65;;;1.20;;
46755;SDS011;32506;52.826;-1.192;2023-04-03T05:11:38;1.63;;;0.98;;
46755;SDS011;32506;52.826;-1.192;2023-04-03T05:14:03;3.17;;;1.23;;
46755;SDS011;32506;52.826;-1.192;2023-04-03T05:16:31;1.90;;;1.00;;
46755;SDS011;32506;52.826;-1.192;2023-04-03T05:18:57;2.25;;;1.23;;
46755;SDS011;32506;52.826;-1.192;2023-04-03T05:21:22;2.38;;;1.15;;
46755;SDS011;32506;52.826;-1.192;2023-04-03T05:23:51;2.05;;;1.02;;
46755;SDS011;32506;52.826;-1.192;2023-04-03T05:26:16;2.67;;;1.23;;
46755;SDS011;32506;52.826;-1.192;2023-04-03T05:28:45;1.50;;;1.00;;
46755;SDS011;32506;52.826;-1.192;2023-04-03T05:31:11;1.70;;;1.05;;
46755;SDS011;32506;52.826;-1.192;2023-04-03T05:33:37;2.63;;;1.10;;
46755;SDS011;32506;52.826;-1.192;2023-04-03T05:36:03;3.10;;;1.50;;
46755;SDS011;32506;52.826;-1.192;2023-04-03T05:38:30;3.10;;;1.20;;
46755;SDS011;32506;52.826;-1.192;2023-04-03T05:40:55;4.00;;;1.40;;
46755;SDS011;32506;52.826;-1.192;2023-04-03T05:43:21;2.10;;;1.08;;
46755;SDS011;32506;52.826;-1.192;2023-04-03T05:45:47;2.05;;;1.30;;
46755;SDS011;32506;52.826;-1.192;2023-04-03T05:48:13;1.95;;;1.10;;
46755;SDS011;32506;52.826;-1.192;2023-04-03T05:50:38;2.42;;;1.17;;
46755;SDS011;32506;52.826;-1.192;2023-04-03T05:53:06;4.25;;;1.45;;
46755;SDS011;32506;52.826;-1.192;2023-04-03T05:55:39;2.80;;;1.83;;
46755;SDS011;32506;52.826;-1.192;2023-04-03T05:58:05;3.45;;;1.05;;
46755;SDS011;32506;52.826;-1.192;2023-04-03T06:00:30;1.85;;;1.25;;
46755;SDS011;32506;52.826;-1.192;2023-04-03T06:02:56;1.83;;;1.30;;
46755;SDS011;32506;52.826;-1.192;2023-04-03T06:05:21;2.22;;;1.38;;
46755;SDS011;32506;52.826;-1.192;2023-04-03T06:07:47;2.38;;;1.40;;
46755;SDS011;32506;52.826;-1.192;2023-04-03T06:10:14;2.42;;;1.20;;
46755;SDS011;32506;52.826;-1.192;2023-04-03T06:12:39;3.55;;;1.48;;
46755;SDS011;32506;52.826;-1.192;2023-04-03T06:15:05;3.75;;;1.30;;
46755;SDS011;32506;52.826;-1.192;2023-04-03T06:17:33;2.60;;;1.30;;
46755;SDS011;32506;52.826;-1.192;2023-04-03T06:19:58;3.00;;;1.17;;
46755;SDS011;32506;52.826;-1.192;2023-04-03T06:22:23;2.15;;;1.55;;
46755;SDS011;32506;52.826;-1.192;2023-04-03T06:24:50;2.95;;;1.25;;
46755;SDS011;32506;52.826;-1.192;2023-04-03T06:27:16;1.85;;;1.10;;
46755;SDS011;32506;52.826;-1.192;2023-04-03T06:29:41;2.08;;;1.13;;
46755;SDS011;32506;52.826;-1.192;2023-04-03T06:32:08;2.67;;;1.23;;
46755;SDS011;32506;52.826;-1.192;2023-04-03T06:34:33;3.00;;;1.45;;
46755;SDS011;32506;52.826;-1.192;2023-04-03T06:36:58;3.78;;;1.75;;
46755;SDS011;32506;52.826;-1.192;2023-04-03T06:39:24;2.90;;;1.40;;
46755;SDS011;32506;52.826;-1.192;2023-04-03T06:41:50;1.98;;;1.27;;
46755;SDS011;32506;52.826;-1.192;2023-04-03T06:44:16;2.20;;;1.30;;
46755;SDS011;32506;52.826;-1.192;2023-04-03T06:46:42;2.35;;;1.20;;
46755;SDS011;32506;52.826;-1.192;2023-04-03T06:49:08;2.13;;;0.90;;
46755;SDS011;32506;52.826;-1.192;2023-04-03T06:51:35;3.85;;;1.40;;
46755;SDS011;32506;52.826;-1.192;2023-04-03T06:54:01;2.95;;;1.10;;
46755;SDS011;32506;52.826;-1.192;2023-04-03T06:56:28;2.13;;;1.00;;
46755;SDS011;32506;52.826;-1.192;2023-04-03T06:58:54;2.22;;;1.40;;
46755;SDS011;32506;52.826;-1.192;2023-04-03T07:01:23;2.17;;;1.08;;
46755;SDS011;32506;52.826;-1.192;2023-04-03T07:03:50;2.28;;;1.23;;
46755;SDS011;32506;52.826;-1.192;2023-04-03T07:06:16;3.28;;;1.33;;
46755;SDS011;32506;52.826;-1.192;2023-04-03T07:08:42;2.60;;;1.60;;
46755;SDS011;32506;52.826;-1.192;2023-04-03T07:11:09;4.50;;;1.48;;
46755;SDS011;32506;52.826;-1.192;2023-04-03T07:13:35;3.35;;;1.25;;
46755;SDS011;32506;52.826;-1.192;2023-04-03T07:16:01;4.75;;;1.50;;
46755;SDS011;32506;52.826;-1.192;2023-04-03T07:18:28;1.77;;;1.30;;
46755;SDS011;32506;52.826;-1.192;2023-04-03T07:20:54;2.47;;;1.20;;
46755;SDS011;32506;52.826;-1.192;2023-04-03T07:23:20;2.50;;;1.58;;
46755;SDS011;32506;52.826;-1.192;2023-04-03T07:25:46;2.78;;;1.35;;
46755;SDS011;32506;52.826;-1.192;2023-04-03T07:28:13;2.65;;;1.50;;
46755;SDS011;32506;52.826;-1.192;2023-04-03T07:30:46;2.42;;;1.50;;
46755;SDS011;32506;52.826;-1.192;2023-04-03T07:33:13;4.55;;;1.50;;
46755;SDS011;32506;52.826;-1.192;2023-04-03T07:35:40;2.63;;;1.40;;
46755;SDS011;32506;52.826;-1.192;2023-04-03T07:38:06;2.92;;;1.45;;
46755;SDS011;32506;52.826;-1.192;2023-04-03T07:40:32;3.38;;;1.48;;
46755;SDS011;32506;52.826;-1.192;2023-04-03T07:42:58;3.10;;;1.55;;
46755;SDS011;32506;52.826;-1.192;2023-04-03T07:45:24;5.22;;;1.30;;
46755;SDS011;32506;52.826;-1.192;2023-04-03T07:47:50;2.75;;;1.60;;
46755;SDS011;32506;52.826;-1.192;2023-04-03T07:50:16;3.13;;;1.42;;
46755;SDS011;32506;52.826;-1.192;2023-04-03T07:52:42;3.15;;;1.45;;
46755;SDS011;32506;52.826;-1.192;2023-04-03T07:55:07;2.17;;;1.05;;
46755;SDS011;32506;52.826;-1.192;2023-04-03T07:57:33;2.80;;;1.52;;
46755;SDS011;32506;52.826;-1.192;2023-04-03T08:00:03;2.92;;;1.42;;
46755;SDS011;32506;52.826;-1.192;2023-04-03T08:02:30;6.53;;;1.60;;
46755;SDS011;32506;52.826;-1.192;2023-04-03T08:04:56;2.70;;;1.40;;
46755;SDS011;32506;52.826;-1.192;2023-04-03T08:07:25;3.83;;;1.55;;
46755;SDS011;32506;52.826;-1.192;2023-04-03T08:09:51;3.83;;;1.40;;
46755;SDS011;32506;52.826;-1.192;2023-04-03T08:12:16;2.97;;;1.42;;
46755;SDS011;32506;52.826;-1.192;2023-04-03T08:14:42;3.97;;;1.63;;
46755;SDS011;32506;52.826;-1.192;2023-04-03T08:17:08;3.63;;;1.50;;
46755;SDS011;32506;52.826;-1.192;2023-04-03T08:19:37;4.32;;;1.65;;
46755;SDS011;32506;52.826;-1.192;2023-04-03T08:22:03;3.22;;;1.60;;
46755;SDS011;32506;52.826;-1.192;2023-04-03T08:24:30;2.22;;;1.27;;
46755;SDS011;32506;52.826;-1.192;2023-04-03T08:26:56;4.70;;;1.65;;
46755;SDS011;32506;52.826;-1.192;2023-04-03T08:29:22;3.53;;;1.70;;
46755;SDS011;32506;52.826;-1.192;2023-04-03T08:31:48;4.45;;;1.63;;
46755;SDS011;32506;52.826;-1.192;2023-04-03T08:34:15;3.58;;;2.28;;
46755;SDS011;32506;52.826;-1.192;2023-04-03T08:36:41;3.40;;;1.23;;
46755;SDS011;32506;52.826;-1.192;2023-04-03T08:39:06;3.70;;;1.40;;
46755;SDS011;32506;52.826;-1.192;2023-04-03T08:41:39;4.85;;;1.75;;
46755;SDS011;32506;52.826;-1.192;2023-04-03T08:44:17;3.97;;;1.60;;
46755;SDS011;32506;52.826;-1.192;2023-04-03T08:49:30;3.17;;;1.42;;
46755;SDS011;32506;52.826;-1.192;2023-04-03T08:52:01;3.85;;;1.60;;
46755;SDS011;32506;52.826;-1.192;2023-04-03T08:54:33;2.72;;;1.33;;
46755;SDS011;32506;52.826;-1.192;2023-04-03T08:57:02;4.53;;;1.50;;
46755;SDS011;32506;52.826;-1.192;2023-04-03T08:59:32;4.03;;;2.03;;
46755;SDS011;32506;52.826;-1.192;2023-04-03T09:02:00;4.07;;;1.38;;
46755;SDS011;32506;52.826;-1.192;2023-04-03T09:04:32;4.50;;;1.83;;
46755;SDS011;32506;52.826;-1.192;2023-04-03T09:07:02;5.95;;;1.65;;
46755;SDS011;32506;52.826;-1.192;2023-04-03T09:09:40;3.42;;;1.48;;
46755;SDS011;32506;52.826;-1.192;2023-04-03T09:12:32;5.97;;;1.58;;
46755;SDS011;32506;52.826;-1.192;2023-04-03T09:15:23;5.93;;;1.70;;
46755;SDS011;32506;52.826;-1.192;2023-04-03T09:20:48;3.50;;;1.95;;
46755;SDS011;32506;52.826;-1.192;2023-04-03T09:23:21;2.85;;;1.05;;
46755;SDS011;32506;52.826;-1.192;2023-04-03T09:26:30;3.17;;;1.25;;
46755;SDS011;32506;52.826;-1.192;2023-04-03T09:29:10;4.07;;;1.40;;
46755;SDS011;32506;52.826;-1.192;2023-04-03T09:31:43;5.13;;;1.25;;
46755;SDS011;32506;52.826;-1.192;2023-04-03T09:36:49;4.68;;;1.52;;
46755;SDS011;32506;52.826;-1.192;2023-04-03T09:39:18;4.45;;;1.15;;
46755;SDS011;32506;52.826;-1.192;2023-04-03T09:41:56;5.97;;;1.30;;
46755;SDS011;32506;52.826;-1.192;2023-04-03T09:44:23;2.70;;;1.30;;
46755;SDS011;32506;52.826;-1.192;2023-04-03T09:46:50;3.15;;;1.00;;
46755;SDS011;32506;52.826;-1.192;2023-04-03T09:49:16;3.70;;;1.25;;
46755;SDS011;32506;52.826;-1.192;2023-04-03T09:51:42;5.45;;;1.23;;
46755;SDS011;32506;52.826;-1.192;2023-04-03T09:56:56;6.32;;;1.17;;
46755;SDS011;32506;52.826;-1.192;2023-04-03T09:59:26;5.72;;;1.15;;
46755;SDS011;32506;52.826;-1.192;2023-04-03T10:01:59;3.03;;;1.45;;
46755;SDS011;32506;52.826;-1.192;2023-04-03T10:04:37;4.03;;;1.10;;
46755;SDS011;32506;52.826;-1.192;2023-04-03T10:07:03;1.52;;;0.88;;
46755;SDS011;32506;52.826;-1.192;2023-04-03T10:10:17;6.35;;;1.55;;
46755;SDS011;32506;52.826;-1.192;2023-04-03T10:12:47;2.95;;;0.85;;
46755;SDS011;32506;52.826;-1.192;2023-04-03T10:15:14;3.75;;;1.15;;
46755;SDS011;32506;52.826;-1.192;2023-04-03T10:20:34;5.55;;;1.20;;
46755;SDS011;32506;52.826;-1.192;2023-04-03T10:25:43;2.47;;;0.77;;
46755;SDS011;32506;52.826;-1.192;2023-04-03T10:38:57;3.35;;;0.85;;
46755;SDS011;32506;52.826;-1.192;2023-04-03T10:41:45;3.30;;;0.93;;
46755;SDS011;32506;52.826;-1.192;2023-04-03T10:46:52;2.78;;;1.27;;
46755;SDS011;32506;52.826;-1.192;2023-04-03T10:54:50;4.13;;;1.10;;
46755;SDS011;32506;52.826;-1.192;2023-04-03T10:57:39;3.85;;;1.08;;
46755;SDS011;32506;52.826;-1.192;2023-04-03T11:00:06;2.70;;;0.80;;
46755;SDS011;32506;52.826;-1.192;2023-04-03T11:05:32;5.22;;;1.17;;
46755;SDS011;32506;52.826;-1.192;2023-04-03T11:08:01;2.75;;;0.70;;
46755;SDS011;32506;52.826;-1.192;2023-04-03T11:15:52;3.25;;;1.33;;
46755;SDS011;32506;52.826;-1.192;2023-04-03T11:18:26;3.72;;;1.30;;
46755;SDS011;32506;52.826;-1.192;2023-04-03T11:23:49;5.82;;;1.00;;
46755;SDS011;32506;52.826;-1.192;2023-04-03T11:26:23;2.25;;;0.70;;
46755;SDS011;32506;52.826;-1.192;2023-04-03T11:28:55;2.72;;;0.95;;
46755;SDS011;32506;52.826;-1.192;2023-04-03T11:36:41;4.28;;;0.80;;
46755;SDS011;32506;52.826;-1.192;2023-04-03T11:45:16;3.00;;;0.85;;
46755;SDS011;32506;52.826;-1.192;2023-04-03T11:47:46;2.80;;;0.85;;
46755;SDS011;32506;52.826;-1.192;2023-04-03T11:53:10;2.22;;;0.70;;
46755;SDS011;32506;52.826;-1.192;2023-04-03T11:56:01;4.25;;;0.80;;
46755;SDS011;32506;52.826;-1.192;2023-04-03T12:01:45;4.45;;;0.70;;
46755;SDS011;32506;52.826;-1.192;2023-04-03T12:04:11;3.38;;;0.90;;
46755;SDS011;32506;52.826;-1.192;2023-04-03T12:06:47;3.55;;;0.80;;
46755;SDS011;32506;52.826;-1.192;2023-04-03T12:09:27;2.72;;;0.77;;
46755;SDS011;32506;52.826;-1.192;2023-04-03T12:12:22;3.75;;;1.38;;
46755;SDS011;32506;52.826;-1.192;2023-04-03T12:15:20;2.80;;;1.17;;
46755;SDS011;32506;52.826;-1.192;2023-04-03T12:17:48;3.50;;;1.00;;
46755;SDS011;32506;52.826;-1.192;2023-04-03T12:23:33;3.28;;;0.90;;
46755;SDS011;32506;52.826;-1.192;2023-04-03T12:26:01;3.75;;;0.80;;
46755;SDS011;32506;52.826;-1.192;2023-04-03T12:28:29;1.88;;;0.60;;
46755;SDS011;32506;52.826;-1.192;2023-04-03T12:30:54;5.00;;;0.90;;
46755;SDS011;32506;52.826;-1.192;2023-04-03T12:33:26;5.93;;;0.80;;
46755;SDS011;32506;52.826;-1.192;2023-04-03T12:36:10;3.08;;;0.68;;
46755;SDS011;32506;52.826;-1.192;2023-04-03T12:41:55;2.80;;;0.70;;
46755;SDS011;32506;52.826;-1.192;2023-04-03T12:44:35;3.63;;;0.63;;
46755;SDS011;32506;52.826;-1.192;2023-04-03T12:47:42;2.67;;;0.70;;
46755;SDS011;32506;52.826;-1.192;2023-04-03T12:50:03;5.63;;;0.90;;
46755;SDS011;32506;52.826;-1.192;2023-04-03T12:52:41;3.55;;;0.70;;
46755;SDS011;32506;52.826;-1.192;2023-04-03T12:55:19;4.88;;;0.80;;
46755;SDS011;32506;52.826;-1.192;2023-04-03T12:57:45;2.10;;;0.70;;
46755;SDS011;32506;52.826;-1.192;2023-04-03T13:00:18;6.40;;;1.30;;
46755;SDS011;32506;52.826;-1.192;2023-04-03T13:03:05;5.55;;;0.80;;
46755;SDS011;32506;52.826;-1.192;2023-04-03T13:05:31;3.70;;;0.90;;
46755;SDS011;32506;52.826;-1.192;2023-04-03T13:08:02;3.70;;;0.98;;
46755;SDS011;32506;52.826;-1.192;2023-04-03T13:10:31;3.10;;;1.00;;
46755;SDS011;32506;52.826;-1.192;2023-04-03T13:13:08;3.58;;;0.82;;
46755;SDS011;32506;52.826;-1.192;2023-04-03T13:15:42;2.85;;;0.73;;
46755;SDS011;32506;52.826;-1.192;2023-04-03T13:18:27;3.25;;;0.77;;
46755;SDS011;32506;52.826;-1.192;2023-04-03T13:23:31;4.07;;;0.95;;
46755;SDS011;32506;52.826;-1.192;2023-04-03T13:25:59;1.52;;;0.77;;
46755;SDS011;32506;52.826;-1.192;2023-04-03T13:28:28;4.78;;;0.80;;
46755;SDS011;32506;52.826;-1.192;2023-04-03T13:30:56;3.05;;;0.60;;
46755;SDS011;32506;52.826;-1.192;2023-04-03T13:33:28;3.33;;;0.93;;
46755;SDS011;32506;52.826;-1.192;2023-04-03T13:38:32;2.92;;;0.82;;
46755;SDS011;32506;52.826;-1.192;2023-04-03T13:41:00;3.80;;;0.85;;
46755;SDS011;32506;52.826;-1.192;2023-04-03T13:43:33;3.38;;;0.77;;
46755;SDS011;32506;52.826;-1.192;2023-04-03T13:51:16;4.93;;;1.25;;
46755;SDS011;32506;52.826;-1.192;2023-04-03T13:56:22;2.80;;;0.75;;
46755;SDS011;32506;52.826;-1.192;2023-04-03T13:59:04;3.50;;;0.75;;
46755;SDS011;32506;52.826;-1.192;2023-04-03T14:01:46;2.30;;;0.60;;
46755;SDS011;32506;52.826;-1.192;2023-04-03T14:04:23;1.85;;;0.47;;
46755;SDS011;32506;52.826;-1.192;2023-04-03T14:06:53;2.97;;;0.80;;
46755;SDS011;32506;52.826;-1.192;2023-04-03T14:09:20;2.63;;;0.90;;
46755;SDS011;32506;52.826;-1.192;2023-04-03T14:11:48;2.85;;;0.63;;
46755;SDS011;32506;52.826;-1.192;2023-04-03T14:14:17;1.75;;;0.60;;
46755;SDS011;32506;52.826;-1.192;2023-04-03T14:16:46;2.60;;;0.50;;
46755;SDS011;32506;52.826;-1.192;2023-04-03T14:19:17;2.47;;;0.63;;
46755;SDS011;32506;52.826;-1.192;2023-04-03T14:21:51;1.38;;;0.47;;
46755;SDS011;32506;52.826;-1.192;2023-04-03T14:24:18;1.23;;;0.40;;
46755;SDS011;32506;52.826;-1.192;2023-04-03T14:26:44;1.42;;;0.50;;
46755;SDS011;32506;52.826;-1.192;2023-04-03T14:29:11;2.10;;;0.68;;
46755;SDS011;32506;52.826;-1.192;2023-04-03T14:31:38;3.40;;;0.50;;
46755;SDS011;32506;52.826;-1.192;2023-04-03T14:34:04;0.57;;;0.20;;
46755;SDS011;32506;52.826;-1.192;2023-04-03T14:36:30;1.58;;;0.60;;
46755;SDS011;32506;52.826;-1.192;2023-04-03T14:38:58;1.92;;;0.50;;
46755;SDS011;32506;52.826;-1.192;2023-04-03T14:41:24;3.22;;;0.50;;
46755;SDS011;32506;52.826;-1.192;2023-04-03T14:43:51;2.25;;;0.50;;
46755;SDS011;32506;52.826;-1.192;2023-04-03T14:46:18;1.17;;;0.45;;
46755;SDS011;32506;52.826;-1.192;2023-04-03T14:48:48;2.00;;;0.40;;
46755;SDS011;32506;52.826;-1.192;2023-04-03T14:51:14;1.65;;;0.50;;
46755;SDS011;32506;52.826;-1.192;2023-04-03T14:53:41;2.35;;;0.40;;
46755;SDS011;32506;52.826;-1.192;2023-04-03T14:56:19;3.60;;;0.70;;
46755;SDS011;32506;52.826;-1.192;2023-04-03T14:58:58;1.27;;;0.50;;
46755;SDS011;32506;52.826;-1.192;2023-04-03T15:01:25;4.45;;;1.13;;
46755;SDS011;32506;52.826;-1.192;2023-04-03T15:03:52;3.13;;;0.70;;
46755;SDS011;32506;52.826;-1.192;2023-04-03T15:06:17;4.65;;;0.70;;
46755;SDS011;32506;52.826;-1.192;2023-04-03T15:08:44;3.95;;;0.50;;
46755;SDS011;32506;52.826;-1.192;2023-04-03T15:11:12;5.15;;;0.70;;
46755;SDS011;32506;52.826;-1.192;2023-04-03T15:13:38;1.10;;;0.60;;
46755;SDS011;32506;52.826;-1.192;2023-04-03T15:16:04;2.47;;;0.70;;
46755;SDS011;32506;52.826;-1.192;2023-04-03T15:18:37;2.13;;;0.80;;
46755;SDS011;32506;52.826;-1.192;2023-04-03T15:21:04;2.28;;;0.50;;
46755;SDS011;32506;52.826;-1.192;2023-04-03T15:23:30;2.22;;;0.50;;
46755;SDS011;32506;52.826;-1.192;2023-04-03T15:25:55;2.25;;;0.57;;
46755;SDS011;32506;52.826;-1.192;2023-04-03T15:28:29;2.55;;;0.60;;
46755;SDS011;32506;52.826;-1.192;2023-04-03T15:31:00;2.53;;;0.50;;
46755;SDS011;32506;52.826;-1.192;2023-04-03T15:33:27;4.45;;;1.30;;
46755;SDS011;32506;52.826;-1.192;2023-04-03T15:35:52;1.90;;;0.40;;
46755;SDS011;32506;52.826;-1.192;2023-04-03T15:38:18;1.88;;;0.50;;
46755;SDS011;32506;52.826;-1.192;2023-04-03T15:40:44;1.77;;;0.63;;
46755;SDS011;32506;52.826;-1.192;2023-04-03T15:43:12;2.15;;;0.50;;
46755;SDS011;32506;52.826;-1.192;2023-04-03T15:45:38;1.92;;;0.50;;
46755;SDS011;32506;52.826;-1.192;2023-04-03T15:48:04;1.27;;;0.40;;
46755;SDS011;32506;52.826;-1.192;2023-04-03T15:50:31;2.38;;;0.60;;
46755;SDS011;32506;52.826;-1.192;2023-04-03T15:52:57;1.60;;;0.93;;
46755;SDS011;32506;52.826;-1.192;2023-04-03T15:55:26;1.27;;;0.50;;
46755;SDS011;32506;52.826;-1.192;2023-04-03T15:57:54;1.73;;;0.70;;
46755;SDS011;32506;52.826;-1.192;2023-04-03T16:00:20;1.17;;;0.50;;
46755;SDS011;32506;52.826;-1.192;2023-04-03T16:02:47;2.40;;;0.60;;
46755;SDS011;32506;52.826;-1.192;2023-04-03T16:05:17;1.00;;;0.40;;
46755;SDS011;32506;52.826;-1.192;2023-04-03T16:07:44;2.08;;;0.50;;
46755;SDS011;32506;52.826;-1.192;2023-04-03T16:10:11;2.83;;;0.60;;
46755;SDS011;32506;52.826;-1.192;2023-04-03T16:12:38;2.53;;;0.55;;